Airfield :
LOGIN :

Register | Disclaimer

   EN    FR    IT 

 










Legend :    VFR   Marginal VFR   IFR   Intensive IFR   Very Intensive IFR
Visi :
Ceiling :
>= 8 km
>= 3000ft
5 to 8 km
1000 to 3000 ft
1500m to 5 km
500 to 1000 ft
800 to 1500m
200 to 500 ft
< 800m
< 200 ft
Symbols :   Thunderstorms  Fog  Heavy snow  Heavy precipitations  Wind > 20 kt
SIGMETs :     Misc.  Thunderstorms  Icing  Turbulence  Mountain Waves  Volcanic Ashes






- Airport Elevation : 230 ft
- IATA code : VAR


LBWN - Varna

CURRENT METAR :
  • 250800Z 32010KT 290V360 CAVOK M03/M09 Q1028 NOSIG

EXPIRED METARs :
  • 250730Z 31010KT 9999 SCT020 M04/M09 Q1029 NOSIG
  • 250700Z 29009KT 260V320 CAVOK M04/M09 Q1029 NOSIG
  • 250630Z 30012KT CAVOK M04/M09 Q1029 NOSIG
  • 250600Z 29010KT 9999 SCT040 M05/M08 Q1029 NOSIG
  • 250530Z 29009KT CAVOK M05/M08 Q1029 NOSIG

TAF TAF LBWN
Valid from the 25 at 06:00 until the 26 at 06:00 UTC


250500Z 2506/2606 33010KT 9999 SCT020 BKN040



MET'MAP, your aeronautical weather chart ! - Copyright ORBIFLY December 2007 - Disclaimer

ORBIFLY MET'MAP TEAM :

Programming & Development : Alexandra Zaïnal
Original concept : Baudouin d'Aumeries
Technical & hardware support : Manuel Goepfert
Assistance : Marc-Olivier Méhu

Contact : metmap@orbifly.com




SOURCES & CREDITS :

   NOAA